Time;durP1;ratioP1;P1;durP2;ratioP2;P2;SDS_P1;SDS_P2;PMS_P1;PMS_P2;Temp;Humidity;BMP_temperature;BMP_pressure;BME280_temperature;BME280_humidity;BME280_pressure;Samples;Min_cycle;Max_cycle;Signal;HPM_P1;HPM_P2
2021/05/10 00:01:38;;;;;;;1999.90;999.90;;;12.80;99.90;;;;;;5055681;28;20188;-47
2021/05/10 00:04:05;;;;;;;1999.90;999.90;;;12.80;99.90;;;;;;5055700;28;20169;-45
2021/05/10 00:06:31;;;;;;;1999.90;999.90;;;12.70;99.90;;;;;;5055607;28;20161;-44
2021/05/10 00:08:59;;;;;;;1999.90;999.90;;;12.70;99.90;;;;;;5055584;28;20169;-45
2021/05/10 00:11:27;;;;;;;1999.90;999.90;;;12.70;99.90;;;;;;5055441;28;20165;-44
2021/05/10 00:13:55;;;;;;;1999.90;999.90;;;12.70;99.90;;;;;;5055450;28;20534;-44
2021/05/10 00:16:22;;;;;;;1999.90;999.90;;;12.70;99.90;;;;;;5055437;28;20181;-45
2021/05/10 00:18:49;;;;;;;1999.90;999.90;;;12.80;99.90;;;;;;5055343;28;20162;-46
2021/05/10 00:21:16;;;;;;;1999.90;999.90;;;12.80;99.90;;;;;;5055220;28;20225;-44
2021/05/10 00:23:43;;;;;;;1999.90;999.90;;;12.80;99.90;;;;;;5055322;28;20624;-45
2021/05/10 00:26:09;;;;;;;1999.90;999.90;;;12.80;99.90;;;;;;5055449;28;20166;-49
2021/05/10 00:28:36;;;;;;;1999.90;999.90;;;12.80;99.90;;;;;;5055005;28;20228;-44
2021/05/10 00:31:04;;;;;;;1999.90;999.90;;;12.80;99.90;;;;;;5055115;28;20219;-44
2021/05/10 00:33:30;;;;;;;1999.90;999.90;;;12.80;99.90;;;;;;5055144;28;20169;-44
2021/05/10 00:35:57;;;;;;;1999.90;999.90;;;12.90;99.90;;;;;;5054972;28;20230;-44
2021/05/10 00:38:24;;;;;;;1999.90;999.90;;;12.80;99.90;;;;;;5055002;28;20580;-47
2021/05/10 00:40:51;;;;;;;1999.90;999.90;;;12.80;99.90;;;;;;5054968;28;20200;-49
2021/05/10 00:43:18;;;;;;;1999.90;999.90;;;12.80;99.90;;;;;;5054856;28;20533;-45
2021/05/10 00:45:45;;;;;;;1999.90;999.90;;;12.80;99.90;;;;;;5055058;28;20184;-47
2021/05/10 00:48:12;;;;;;;1999.90;999.90;;;12.70;99.90;;;;;;5054870;28;20177;-46
2021/05/10 00:50:38;;;;;;;1999.90;999.90;;;12.70;99.90;;;;;;5054764;28;20195;-49
2021/05/10 00:53:05;;;;;;;1999.90;999.90;;;12.60;99.90;;;;;;5054734;28;20196;-44
2021/05/10 00:55:35;;;;;;;1999.90;999.90;;;12.50;99.90;;;;;;5054759;28;20201;-44
2021/05/10 00:58:03;;;;;;;1999.90;999.90;;;12.50;99.90;;;;;;5054643;28;20188;-44
2021/05/10 01:00:39;;;;;;;1999.90;999.90;;;12.50;99.90;;;;;;5054457;28;20197;-44
2021/05/10 01:03:09;;;;;;;1999.90;999.90;;;12.50;99.90;;;;;;5054691;28;20167;-44
2021/05/10 01:05:39;;;;;;;1999.90;999.90;;;12.50;99.90;;;;;;5054496;28;20538;-44
2021/05/10 01:08:09;;;;;;;1999.90;999.90;;;12.50;99.90;;;;;;5054460;28;20264;-44
2021/05/10 01:10:35;;;;;;;1999.90;999.90;;;12.50;99.90;;;;;;5054497;28;20248;-44
2021/05/10 01:13:03;;;;;;;1999.90;999.90;;;12.50;99.90;;;;;;5054447;28;20169;-44
2021/05/10 01:15:30;;;;;;;1999.90;999.90;;;12.40;99.90;;;;;;5054381;28;20200;-44
2021/05/10 01:17:57;;;;;;;1999.90;999.90;;;12.50;99.90;;;;;;5054330;28;20724;-44
2021/05/10 01:20:25;;;;;;;1999.90;999.90;;;12.50;99.90;;;;;;5054267;28;20254;-44
2021/05/10 01:22:54;;;;;;;1999.90;999.90;;;12.40;99.90;;;;;;5053690;28;20166;-44
2021/05/10 01:25:26;;;;;;;1999.90;999.90;;;12.40;99.90;;;;;;5054152;28;20598;-44
2021/05/10 01:27:54;;;;;;;1999.90;999.90;;;12.30;99.90;;;;;;5053891;28;20213;-45
2021/05/10 01:30:31;;;;;;;1999.90;999.90;;;12.30;99.90;;;;;;5054057;28;20173;-44
2021/05/10 01:32:58;;;;;;;1999.90;999.90;;;12.30;99.90;;;;;;5054030;28;20157;-44
2021/05/10 01:35:34;;;;;;;1999.90;999.90;;;12.30;99.90;;;;;;5054082;28;20613;-44
2021/05/10 01:38:04;;;;;;;1999.90;999.90;;;12.30;99.90;;;;;;5053918;28;20157;-45
2021/05/10 01:40:31;;;;;;;1999.90;999.90;;;12.30;99.90;;;;;;5053881;28;20212;-44
2021/05/10 01:42:59;;;;;;;1999.90;999.90;;;12.30;99.90;;;;;;5053807;28;20529;-44
2021/05/10 01:45:27;;;;;;;1999.90;999.90;;;12.40;99.90;;;;;;5053860;28;20170;-44
2021/05/10 01:48:05;;;;;;;1999.90;999.90;;;12.30;99.90;;;;;;5053802;28;20161;-44
2021/05/10 01:50:34;;;;;;;1999.90;999.90;;;12.30;99.90;;;;;;5053816;28;20162;-44
2021/05/10 01:53:01;;;;;;;1999.90;999.90;;;12.30;99.90;;;;;;5053712;28;20165;-44
2021/05/10 01:55:28;;;;;;;1999.90;999.90;;;12.30;99.90;;;;;;5053698;28;20169;-44
2021/05/10 01:57:58;;;;;;;1999.90;999.90;;;12.20;99.90;;;;;;5053639;28;20523;-45
2021/05/10 02:00:28;;;;;;;1999.90;999.90;;;12.10;99.90;;;;;;5053485;28;20220;-44
2021/05/10 02:03:03;;;;;;;1999.90;999.90;;;12.10;99.90;;;;;;5053617;28;20219;-44
2021/05/10 02:05:31;;;;;;;1999.90;999.90;;;12.10;99.90;;;;;;5053438;28;20169;-44
2021/05/10 02:08:00;;;;;;;1999.90;999.90;;;12.10;99.90;;;;;;5053527;28;20531;-45
2021/05/10 02:10:35;;;;;;;1999.90;999.90;;;12.10;99.90;;;;;;5053371;28;20173;-45
2021/05/10 02:13:05;;;;;;;1999.90;999.90;;;12.10;99.90;;;;;;5053402;28;20153;-47
2021/05/10 02:15:34;;;;;;;1999.90;999.90;;;12.10;99.90;;;;;;5053247;28;20169;-44
2021/05/10 02:18:02;;;;;;;1999.90;999.90;;;12.10;99.90;;;;;;5053258;28;20327;-45
2021/05/10 02:20:31;;;;;;;1999.90;999.90;;;12.10;99.90;;;;;;5053166;28;20205;-46
2021/05/10 02:22:59;;;;;;;1999.90;999.90;;;12.00;99.90;;;;;;5053155;28;20181;-46
2021/05/10 02:25:31;;;;;;;1999.90;999.90;;;12.00;99.90;;;;;;5051965;28;20687;-48
2021/05/10 02:27:59;;;;;;;1999.90;999.90;;;12.00;99.90;;;;;;5052898;28;20216;-47
2021/05/10 02:30:28;;;;;;;1999.90;999.90;;;12.00;99.90;;;;;;5053091;28;20196;-44
2021/05/10 02:32:57;;;;;;;1999.90;999.90;;;12.00;99.90;;;;;;5052876;28;20178;-45
2021/05/10 02:35:23;;;;;;;1999.90;999.90;;;12.00;99.90;;;;;;5052513;28;20247;-45
2021/05/10 02:37:51;;;;;;;1999.90;999.90;;;12.00;99.90;;;;;;5053132;28;20169;-47
2021/05/10 02:40:19;;;;;;;1999.90;999.90;;;12.00;99.90;;;;;;5052861;28;20728;-44
2021/05/10 02:42:46;;;;;;;1999.90;999.90;;;12.00;99.90;;;;;;5052947;28;20201;-45
2021/05/10 02:45:14;;;;;;;1999.90;999.90;;;11.90;99.90;;;;;;5052880;28;20173;-46
2021/05/10 02:47:41;;;;;;;1999.90;999.90;;;11.90;99.90;;;;;;5052868;28;20175;-46
2021/05/10 02:50:10;;;;;;;1999.90;999.90;;;11.90;99.90;;;;;;5052801;28;20181;-45
2021/05/10 02:52:38;;;;;;;1999.90;999.90;;;11.90;99.90;;;;;;5052815;28;20188;-45
2021/05/10 02:55:07;;;;;;;1999.90;999.90;;;11.90;99.90;;;;;;5052840;28;20181;-45
2021/05/10 02:57:34;;;;;;;1999.90;999.90;;;11.90;99.90;;;;;;5052760;28;20173;-45
2021/05/10 03:00:02;;;;;;;1999.90;999.90;;;11.90;99.90;;;;;;5052690;28;20200;-46
2021/05/10 03:02:28;;;;;;;1999.90;999.90;;;11.90;99.90;;;;;;5052595;28;20177;-46
2021/05/10 03:04:55;;;;;;;1999.90;999.90;;;11.90;99.90;;;;;;5052796;28;20196;-45
2021/05/10 03:07:22;;;;;;;1999.90;999.90;;;11.90;99.90;;;;;;5052865;28;20207;-45
2021/05/10 03:09:49;;;;;;;1999.90;999.90;;;11.80;99.90;;;;;;5052645;28;20203;-45
2021/05/10 03:12:17;;;;;;;1999.90;999.90;;;11.80;99.90;;;;;;5052531;28;20710;-45
2021/05/10 03:14:44;;;;;;;1999.90;999.90;;;11.80;99.90;;;;;;5052293;28;20196;-46
2021/05/10 03:17:11;;;;;;;1999.90;999.90;;;11.80;99.90;;;;;;5052949;28;20173;-47
2021/05/10 03:19:38;;;;;;;1999.90;999.90;;;11.80;99.90;;;;;;5052350;28;20208;-46
2021/05/10 03:22:04;;;;;;;1999.90;999.90;;;11.80;99.90;;;;;;5052517;28;20172;-46
2021/05/10 03:24:31;;;;;;;1999.90;999.90;;;11.80;99.90;;;;;;5052394;28;20632;-47
2021/05/10 03:26:58;;;;;;;1999.90;999.90;;;11.80;99.90;;;;;;5052442;28;20644;-45
2021/05/10 03:29:25;;;;;;;1999.90;999.90;;;11.80;99.90;;;;;;5052535;28;20169;-46
2021/05/10 03:31:53;;;;;;;1999.90;999.90;;;11.80;99.90;;;;;;5052344;28;20537;-48
2021/05/10 03:34:20;;;;;;;1999.90;999.90;;;11.80;99.90;;;;;;5052332;28;20169;-46
2021/05/10 03:36:47;;;;;;;1999.90;999.90;;;11.90;99.90;;;;;;5052301;28;20173;-47
2021/05/10 03:39:14;;;;;;;1999.90;999.90;;;11.80;99.90;;;;;;5052238;28;20161;-46
2021/05/10 03:41:41;;;;;;;1999.90;999.90;;;11.70;99.90;;;;;;5052335;28;20177;-46
2021/05/10 03:44:08;;;;;;;1999.90;999.90;;;11.60;99.90;;;;;;5052281;28;20180;-49
2021/05/10 03:46:34;;;;;;;1999.90;999.90;;;11.50;99.90;;;;;;5055379;28;20173;-46
2021/05/10 03:49:01;;;;;;;1999.90;999.90;;;11.50;99.90;;;;;;5055984;28;20165;-47
2021/05/10 03:51:28;;;;;;;1999.90;999.90;;;11.40;99.90;;;;;;5056086;28;20165;-48
2021/05/10 03:53:55;;;;;;;1999.90;999.90;;;11.40;99.90;;;;;;5055894;28;20248;-49
2021/05/10 03:56:22;;;;;;;1999.90;999.90;;;11.50;99.90;;;;;;5055833;28;20207;-48
2021/05/10 03:58:48;;;;;;;1999.90;999.90;;;11.50;99.90;;;;;;5055733;28;20200;-46
2021/05/10 04:01:15;;;;;;;1999.90;999.90;;;11.50;99.90;;;;;;5055698;28;20200;-47
2021/05/10 04:14:28;;;;;;;1999.90;999.90;;;11.50;99.90;;;;;;5055473;28;20236;-46
2021/05/10 04:16:55;;;;;;;1999.90;999.90;;;11.50;99.90;;;;;;5055480;28;20169;-48
2021/05/10 04:19:21;;;;;;;1999.90;999.90;;;11.60;99.90;;;;;;5055323;28;20256;-46
2021/05/10 04:21:48;;;;;;;1999.90;999.90;;;11.60;99.90;;;;;;5055295;28;20197;-46
2021/05/10 04:24:15;;;;;;;1999.90;999.90;;;11.60;99.90;;;;;;5055364;28;20157;-46
2021/05/10 04:26:42;;;;;;;1999.90;999.90;;;11.60;99.90;;;;;;5055221;28;20169;-46
2021/05/10 04:29:09;;;;;;;1999.90;999.90;;;11.70;99.90;;;;;;5055071;28;20691;-47
2021/05/10 04:31:36;;;;;;;1999.90;999.90;;;11.60;99.90;;;;;;5055278;28;20169;-47
2021/05/10 04:34:03;;;;;;;1999.90;999.90;;;11.70;99.90;;;;;;5055313;28;20165;-46
2021/05/10 04:36:29;;;;;;;1999.90;999.90;;;11.70;99.90;;;;;;5055120;28;20185;-46
2021/05/10 04:38:56;;;;;;;1999.90;999.90;;;11.70;99.90;;;;;;5054824;28;20162;-46
2021/05/10 04:41:23;;;;;;;1999.90;999.90;;;11.60;99.90;;;;;;5054733;28;20201;-46
2021/05/10 04:43:50;;;;;;;1999.90;999.90;;;11.70;99.90;;;;;;5054871;28;20197;-46
2021/05/10 04:46:17;;;;;;;1999.90;999.90;;;11.60;99.90;;;;;;5054671;28;20651;-45
2021/05/10 04:48:44;;;;;;;1999.90;999.90;;;11.50;99.90;;;;;;5054775;28;20172;-46
2021/05/10 04:51:11;;;;;;;1999.90;999.90;;;11.50;99.90;;;;;;5054694;28;20165;-45
2021/05/10 04:53:38;;;;;;;1999.90;999.90;;;11.60;99.90;;;;;;5054417;28;20174;-45
2021/05/10 04:56:05;;;;;;;1999.90;999.90;;;11.50;99.90;;;;;;5054583;28;20176;-45
2021/05/10 04:58:33;;;;;;;1999.90;999.90;;;11.50;99.90;;;;;;5053927;28;20169;-44
2021/05/10 05:01:00;;;;;;;1999.90;999.90;;;11.50;99.90;;;;;;5054464;28;20205;-45
2021/05/10 05:03:27;;;;;;;1999.90;999.90;;;11.50;99.90;;;;;;5054437;28;20168;-45
2021/05/10 05:05:54;;;;;;;1999.90;999.90;;;11.50;99.90;;;;;;5054368;28;20191;-44
2021/05/10 05:08:20;;;;;;;1999.90;999.90;;;11.50;99.90;;;;;;5054117;28;20260;-44
2021/05/10 05:10:47;;;;;;;1999.90;999.90;;;11.40;99.90;;;;;;5054289;28;20632;-46
2021/05/10 05:13:22;;;;;;;1999.90;999.90;;;11.40;99.90;;;;;;5054241;28;20181;-45
2021/05/10 05:15:49;;;;;;;1999.90;999.90;;;11.40;99.90;;;;;;5054264;28;20551;-45
2021/05/10 05:18:16;;;;;;;1999.90;999.90;;;11.40;99.90;;;;;;5054431;28;20219;-45
2021/05/10 05:20:43;;;;;;;1999.90;999.90;;;11.40;99.90;;;;;;5054110;28;20284;-47
2021/05/10 05:23:24;;;;;;;1999.90;999.90;;;11.40;99.90;;;;;;5054156;28;20594;-44
2021/05/10 05:26:02;;;;;;;1999.90;999.90;;;11.40;99.90;;;;;;5054126;28;20248;-45
2021/05/10 05:28:30;;;;;;;1999.90;999.90;;;11.40;99.90;;;;;;5053818;28;20271;-48
2021/05/10 05:30:59;;;;;;;1999.90;999.90;;;11.40;99.90;;;;;;5053824;28;20169;-46
2021/05/10 05:33:26;;;;;;;1999.90;999.90;;;11.30;99.90;;;;;;5053945;28;20169;-46
2021/05/10 05:35:53;;;;;;;1999.90;999.90;;;11.40;99.90;;;;;;5053684;28;20257;-49
2021/05/10 05:38:21;;;;;;;1999.90;999.90;;;11.40;99.90;;;;;;5053594;28;20165;-48
2021/05/10 05:40:48;;;;;;;1999.90;999.90;;;11.40;99.90;;;;;;5053611;28;20197;-46
2021/05/10 05:43:16;;;;;;;1999.90;999.90;;;11.30;99.90;;;;;;5053608;28;20169;-48
2021/05/10 05:45:43;;;;;;;1999.90;999.90;;;11.30;99.90;;;;;;5053449;28;20260;-45
2021/05/10 05:48:11;;;;;;;1999.90;999.90;;;11.30;99.90;;;;;;5053302;28;20175;-47
2021/05/10 05:50:39;;;;;;;1999.90;999.90;;;11.20;99.90;;;;;;5053450;28;20184;-46
2021/05/10 05:53:07;;;;;;;1999.90;999.90;;;11.20;99.90;;;;;;5053444;28;20520;-47
2021/05/10 05:55:33;;;;;;;1999.90;999.90;;;11.20;99.90;;;;;;5053179;28;20535;-45
2021/05/10 05:58:02;;;;;;;1999.90;999.90;;;11.20;99.90;;;;;;5052824;28;20178;-45
2021/05/10 06:00:29;;;;;;;1999.90;999.90;;;11.20;99.90;;;;;;5052710;28;20290;-45
2021/05/10 06:02:56;;;;;;;1999.90;999.90;;;11.20;99.90;;;;;;5053008;28;20193;-49
2021/05/10 06:05:23;;;;;;;1999.90;999.90;;;11.30;99.90;;;;;;5052953;28;20259;-51
2021/05/10 06:07:51;;;;;;;1999.90;999.90;;;11.50;99.90;;;;;;5052822;28;20630;-50
2021/05/10 06:10:22;;;;;;;1999.90;999.90;;;11.80;99.90;;;;;;5050197;28;20211;-58
2021/05/10 06:12:51;;;;;;;1999.90;999.90;;;12.10;99.90;;;;;;5052266;28;20232;-51
2021/05/10 06:15:22;;;;;;;1999.90;999.90;;;12.20;99.90;;;;;;5052539;28;20180;-50
2021/05/10 06:17:50;;;;;;;1999.90;999.90;;;12.50;99.90;;;;;;5052814;28;20169;-58
2021/05/10 06:20:18;;;;;;;1999.90;999.90;;;12.80;99.90;;;;;;5053133;28;20553;-58
2021/05/10 06:22:45;;;;;;;1999.90;999.90;;;13.00;99.90;;;;;;5052473;28;20215;-59
2021/05/10 06:25:14;;;;;;;1999.90;999.90;;;13.10;99.90;;;;;;5052099;28;20165;-48
2021/05/10 06:27:41;;;;;;;1999.90;999.90;;;13.10;99.90;;;;;;5051890;28;20209;-44
2021/05/10 06:30:10;;;;;;;1999.90;999.90;;;13.00;99.90;;;;;;5052262;28;20173;-44
2021/05/10 06:32:40;;;;;;;1999.90;999.90;;;13.10;99.90;;;;;;5052282;28;20195;-41
2021/05/10 06:35:09;;;;;;;1999.90;999.90;;;13.20;99.90;;;;;;5052263;28;20177;-42
2021/05/10 06:37:36;;;;;;;1999.90;999.90;;;13.50;99.90;;;;;;5052285;28;20230;-43
2021/05/10 06:40:04;;;;;;;1999.90;999.90;;;13.50;99.90;;;;;;5052092;28;20208;-43
2021/05/10 06:42:31;;;;;;;1999.90;999.90;;;13.50;99.90;;;;;;5052301;28;20192;-44
2021/05/10 06:44:59;;;;;;;1999.90;999.90;;;13.50;99.90;;;;;;5052359;28;20570;-46
2021/05/10 06:47:28;;;;;;;1999.90;999.90;;;13.70;99.90;;;;;;5052429;28;20212;-44
2021/05/10 06:49:55;;;;;;;1999.90;999.90;;;13.80;99.90;;;;;;5052327;28;20165;-54
2021/05/10 06:52:22;;;;;;;1999.90;999.90;;;13.80;99.90;;;;;;5052234;28;20215;-45
2021/05/10 06:54:49;;;;;;;1999.90;999.90;;;13.80;99.90;;;;;;5050850;28;20182;-47
2021/05/10 06:57:16;;;;;;;1999.90;999.90;;;13.80;99.90;;;;;;5052082;28;20165;-45
2021/05/10 06:59:44;;;;;;;1999.90;999.90;;;14.00;99.90;;;;;;5052229;28;20284;-48
2021/05/10 07:02:12;;;;;;;1999.90;999.90;;;14.00;99.90;;;;;;5052316;28;20231;-46
2021/05/10 07:04:39;;;;;;;1999.90;999.90;;;14.00;99.90;;;;;;5052194;28;20207;-56
2021/05/10 07:07:05;;;;;;;1999.90;999.90;;;14.00;99.90;;;;;;5052227;28;20617;-50
2021/05/10 07:09:32;;;;;;;1999.90;999.90;;;14.20;99.90;;;;;;5051939;28;20179;-53
2021/05/10 07:11:59;;;;;;;1999.90;999.90;;;14.40;99.90;;;;;;5051956;28;20169;-53
2021/05/10 07:14:26;;;;;;;1999.90;999.90;;;14.50;99.90;;;;;;5052139;28;20268;-58
2021/05/10 07:16:52;;;;;;;1999.90;999.90;;;14.60;99.90;;;;;;5052259;28;20177;-46
2021/05/10 07:19:20;;;;;;;1999.90;999.90;;;14.60;99.90;;;;;;5051835;28;20529;-44
2021/05/10 07:21:46;;;;;;;1999.90;999.90;;;14.60;99.90;;;;;;5055606;28;20169;-45
2021/05/10 07:24:13;;;;;;;1999.90;999.90;;;14.50;99.90;;;;;;5056239;28;20641;-43
2021/05/10 07:26:40;;;;;;;1999.90;999.90;;;14.50;99.90;;;;;;5055887;28;20214;-43
2021/05/10 07:29:07;;;;;;;1999.90;999.90;;;14.60;99.90;;;;;;5055900;28;20216;-44
2021/05/10 07:31:34;;;;;;;1999.90;999.90;;;14.70;99.90;;;;;;5056115;28;20189;-43
2021/05/10 07:34:00;;;;;;;1999.90;999.90;;;14.70;99.90;;;;;;5055987;28;20175;-45
2021/05/10 07:36:27;;;;;;;1999.90;999.90;;;14.70;99.90;;;;;;5055647;28;20187;-43
2021/05/10 07:38:54;;;;;;;1999.90;999.90;;;14.80;99.90;;;;;;5055775;28;20165;-43
2021/05/10 07:41:21;;;;;;;1999.90;999.90;;;14.90;99.90;;;;;;5055583;28;20263;-48
2021/05/10 07:43:47;;;;;;;1999.90;999.90;;;14.90;99.90;;;;;;5055869;28;20177;-44
2021/05/10 07:46:14;;;;;;;1999.90;999.90;;;15.10;99.90;;;;;;5055932;28;20173;-47
2021/05/10 07:48:41;;;;;;;1999.90;999.90;;;15.20;99.90;;;;;;5055756;28;20254;-47
2021/05/10 07:51:08;;;;;;;1999.90;999.90;;;15.50;99.90;;;;;;5055372;28;20207;-43
2021/05/10 07:53:35;;;;;;;1999.90;999.90;;;15.70;99.90;;;;;;5055354;28;20169;-45
2021/05/10 07:56:02;;;;;;;1999.90;999.90;;;15.70;99.90;;;;;;5055253;28;20169;-48
2021/05/10 07:58:28;;;;;;;1999.90;999.90;;;15.90;99.90;;;;;;5053799;28;20177;-44
2021/05/10 08:00:58;;;;;;;1999.90;999.90;;;16.00;99.90;;;;;;5055319;28;20197;-47
2021/05/10 08:03:27;;;;;;;1999.90;999.90;;;16.10;99.90;;;;;;5054989;28;20257;-45
2021/05/10 08:05:54;;;;;;;1999.90;999.90;;;16.30;99.90;;;;;;5055014;28;20644;-46
2021/05/10 08:08:26;;;;;;;1999.90;999.90;;;16.30;99.90;;;;;;5053626;28;20180;-48
2021/05/10 08:10:53;;;;;;;1999.90;999.90;;;16.50;99.90;;;;;;5054942;28;20153;-50
2021/05/10 08:13:20;;;;;;;1999.90;999.90;;;16.80;99.90;;;;;;5055079;28;20165;-56
2021/05/10 08:15:47;;;;;;;1999.90;999.90;;;17.10;99.90;;;;;;5054926;28;20623;-51
2021/05/10 08:18:14;;;;;;;1999.90;999.90;;;17.30;99.90;;;;;;5055019;28;20188;-47
2021/05/10 08:20:43;;;;;;;1999.90;999.90;;;17.40;99.90;;;;;;5054813;28;20197;-59
2021/05/10 08:23:11;;;;;;;1999.90;999.90;;;17.40;99.90;;;;;;5054821;28;20204;-46
2021/05/10 08:25:41;;;;;;;1999.90;999.90;;;17.60;99.90;;;;;;5054813;28;20599;-48
2021/05/10 08:28:08;;;;;;;1999.90;999.90;;;17.70;99.90;;;;;;5054901;28;20223;-46
2021/05/10 08:30:35;;;;;;;1999.90;999.90;;;17.90;99.90;;;;;;5054629;28;20166;-46
2021/05/10 08:33:02;;;;;;;1999.90;999.90;;;18.00;99.90;;;;;;5053195;28;20165;-59
2021/05/10 08:35:30;;;;;;;1999.90;999.90;;;18.20;99.90;;;;;;5054812;28;20207;-47
2021/05/10 08:37:56;;;;;;;1999.90;999.90;;;18.30;99.90;;;;;;5054113;28;20213;-46
2021/05/10 08:40:23;;;;;;;1999.90;999.90;;;18.30;99.90;;;;;;5054757;28;20196;-46
2021/05/10 08:42:50;;;;;;;1999.90;999.90;;;18.30;99.90;;;;;;5054422;28;20173;-47
2021/05/10 08:45:21;;;;;;;1999.90;999.90;;;18.40;99.90;;;;;;5054567;28;20173;-48
2021/05/10 08:47:49;;;;;;;1999.90;999.90;;;18.40;99.90;;;;;;5054448;28;20223;-49
2021/05/10 08:50:16;;;;;;;1999.90;999.90;;;18.50;99.90;;;;;;5054448;28;20181;-45
2021/05/10 08:52:44;;;;;;;1999.90;999.90;;;18.60;99.90;;;;;;5054563;28;20162;-50
2021/05/10 08:55:15;;;;;;;1999.90;999.90;;;18.60;99.90;;;;;;5053280;28;20264;-47
2021/05/10 08:57:42;;;;;;;1999.90;999.90;;;18.70;99.90;;;;;;5054257;28;20161;-55
2021/05/10 09:00:13;;;;;;;1999.90;999.90;;;18.90;99.90;;;;;;5054334;28;20307;-61
2021/05/10 09:02:40;;;;;;;1999.90;999.90;;;19.10;99.90;;;;;;5054389;28;20164;-46
2021/05/10 09:05:10;;;;;;;1999.90;999.90;;;19.30;99.30;;;;;;5054293;28;20169;-47
2021/05/10 09:07:37;;;;;;;1999.90;999.90;;;19.40;98.80;;;;;;5054066;28;20260;-57
2021/05/10 09:10:07;;;;;;;1999.90;999.90;;;19.50;98.70;;;;;;5053917;28;20593;-53
2021/05/10 09:12:49;;;;;;;1999.90;999.90;;;19.60;98.60;;;;;;5054114;28;20167;-48
2021/05/10 09:15:34;;;;;;;1999.90;999.90;;;19.80;97.90;;;;;;5053920;28;20212;-51
2021/05/10 09:18:09;;;;;;;1999.90;999.90;;;20.10;97.50;;;;;;5054468;28;20200;-49
2021/05/10 09:20:38;;;;;;;1999.90;999.90;;;20.10;96.80;;;;;;5054290;28;20294;-50
2021/05/10 09:23:14;;;;;;;1999.90;999.90;;;20.30;96.60;;;;;;5052458;28;20627;-57
2021/05/10 09:25:43;;;;;;;1999.90;999.90;;;20.50;96.70;;;;;;5051961;28;20177;-57
2021/05/10 09:28:18;;;;;;;1999.90;999.90;;;20.80;95.40;;;;;;5053240;28;20208;-55
2021/05/10 09:30:58;;;;;;;1999.90;999.90;;;20.90;95.00;;;;;;5053328;28;20208;-54
2021/05/10 09:33:29;;;;;;;1999.90;999.90;;;21.00;94.40;;;;;;5053897;28;20161;-47
2021/05/10 09:35:57;;;;;;;1999.90;999.90;;;21.00;94.70;;;;;;5052353;28;20169;-52
2021/05/10 09:38:26;;;;;;;1999.90;999.90;;;21.20;94.50;;;;;;5053795;28;20166;-60
2021/05/10 09:40:55;;;;;;;1999.90;999.90;;;21.20;94.20;;;;;;5053419;28;20759;-43
2021/05/10 09:43:34;;;;;;;1999.90;999.90;;;21.60;95.10;;;;;;5052786;28;20165;-57
2021/05/10 09:46:10;;;;;;;1999.90;999.90;;;22.00;93.00;;;;;;5053018;28;20169;-45
2021/05/10 09:48:39;;;;;;;1999.90;999.90;;;22.20;92.10;;;;;;5050940;28;20159;-45
2021/05/10 09:51:11;;;;;;;1999.90;999.90;;;22.50;91.60;;;;;;5050418;28;20282;-45
2021/05/10 09:53:54;;;;;;;1999.90;999.90;;;22.30;91.10;;;;;;5052614;28;20172;-43
2021/05/10 09:59:06;;;;;;;1999.90;999.90;;;21.70;91.90;;;;;;5053022;28;20173;-43
2021/05/10 10:01:43;;;;;;;1999.90;999.90;;;21.90;92.40;;;;;;5050347;28;20667;-43
2021/05/10 10:04:10;;;;;;;1999.90;999.90;;;22.20;91.80;;;;;;5052237;28;20183;-47
2021/05/10 10:06:38;;;;;;;1999.90;999.90;;;22.60;90.50;;;;;;5052955;28;20283;-44
2021/05/10 10:09:05;;;;;;;1999.90;999.90;;;22.60;90.80;;;;;;5052842;28;20169;-48
2021/05/10 10:11:32;;;;;;;1999.90;999.90;;;22.90;90.50;;;;;;5052813;28;20252;-49
2021/05/10 10:14:00;;;;;;;1999.90;999.90;;;23.10;88.80;;;;;;5053094;28;20689;-52
2021/05/10 10:16:29;;;;;;;1999.90;999.90;;;23.00;88.40;;;;;;5053101;28;20621;-47
2021/05/10 10:19:00;;;;;;;1999.90;999.90;;;23.40;87.60;;;;;;5051868;28;20173;-53
2021/05/10 10:21:28;;;;;;;1999.90;999.90;;;23.70;85.70;;;;;;5052942;28;20291;-44
2021/05/10 10:23:59;;;;;;;1999.90;999.90;;;23.70;86.70;;;;;;5052744;28;20636;-47
2021/05/10 10:26:27;;;;;;;1999.90;999.90;;;24.00;83.70;;;;;;5053099;28;20555;-54
2021/05/10 10:28:56;;;;;;;1999.90;999.90;;;24.30;83.40;;;;;;5052677;28;20228;-52
2021/05/10 10:31:29;;;;;;;1999.90;999.90;;;24.40;83.10;;;;;;5052737;28;20181;-60
2021/05/10 10:34:02;;;;;;;1999.90;999.90;;;24.60;82.20;;;;;;5052763;28;20592;-57
2021/05/10 10:36:39;;;;;;;1999.90;999.90;;;24.70;81.30;;;;;;5052787;28;20275;-56
2021/05/10 10:39:27;;;;;;;1999.90;999.90;;;24.90;79.80;;;;;;5052792;28;20608;-57
2021/05/10 10:42:02;;;;;;;1999.90;999.90;;;24.80;76.60;;;;;;5052661;28;20196;-51
2021/05/10 10:44:36;;;;;;;1999.90;999.90;;;24.90;78.70;;;;;;5052453;28;20210;-51
2021/05/10 10:47:05;;;;;;;1999.90;999.90;;;24.90;76.00;;;;;;5052749;28;20168;-52
2021/05/10 10:49:35;;;;;;;1999.90;999.90;;;25.20;74.40;;;;;;5052498;28;20244;-51
2021/05/10 10:52:03;;;;;;;1999.90;999.90;;;25.50;73.10;;;;;;5052665;28;20181;-55
2021/05/10 10:54:31;;;;;;;1999.90;999.90;;;25.90;71.80;;;;;;5051730;28;20165;-57
2021/05/10 10:57:02;;;;;;;1999.90;999.90;;;26.30;69.80;;;;;;5052343;28;20839;-52
2021/05/10 10:59:37;;;;;;;1999.90;999.90;;;25.90;70.00;;;;;;5050929;28;20169;-56
2021/05/10 11:02:26;;;;;;;1999.90;999.90;;;25.50;69.50;;;;;;5052599;28;20161;-55
2021/05/10 11:05:30;;;;;;;1999.90;999.90;;;24.70;71.80;;;;;;5052409;28;20207;-53
2021/05/10 11:08:04;;;;;;;1999.90;999.90;;;24.80;75.00;;;;;;5052182;28;20206;-57
2021/05/10 11:10:55;;;;;;;1999.90;999.90;;;24.60;75.00;;;;;;5052452;28;20251;-57
2021/05/10 11:13:29;;;;;;;1999.90;999.90;;;24.70;74.20;;;;;;5052266;28;20240;-53
2021/05/10 11:16:02;;;;;;;1999.90;999.90;;;24.80;74.80;;;;;;5052465;28;20177;-50
2021/05/10 11:18:56;;;;;;;1999.90;999.90;;;25.20;71.70;;;;;;5052159;28;20164;-54
2021/05/10 11:21:26;;;;;;;1999.90;999.90;;;25.50;69.40;;;;;;5052157;28;20238;-56
2021/05/10 11:24:00;;;;;;;1999.90;999.90;;;25.60;66.90;;;;;;5052163;28;20173;-55
2021/05/10 11:26:47;;;;;;;1999.90;999.90;;;24.60;69.00;;;;;;5052130;28;20168;-54
2021/05/10 11:29:33;;;;;;;1999.90;999.90;;;24.50;70.40;;;;;;5050717;28;20225;-52
2021/05/10 11:32:19;;;;;;;1999.90;999.90;;;24.90;70.20;;;;;;5052296;28;20169;-56
2021/05/10 11:34:46;;;;;;;1999.90;999.90;;;24.90;65.60;;;;;;5051756;28;20189;-54
2021/05/10 11:37:15;;;;;;;1999.90;999.90;;;24.90;66.20;;;;;;5052068;28;20176;-51
2021/05/10 11:39:42;;;;;;;1999.90;999.90;;;24.80;64.30;;;;;;5052051;28;20168;-45
2021/05/10 11:42:11;;;;;;;1999.90;999.90;;;24.60;67.30;;;;;;5051833;28;20219;-40
2021/05/10 11:44:40;;;;;;;1999.90;999.90;;;24.40;66.90;;;;;;5051932;28;20181;-38
2021/05/10 11:47:09;;;;;;;1999.90;999.90;;;24.60;67.80;;;;;;5052206;28;20182;-46
2021/05/10 11:49:40;;;;;;;1999.90;999.90;;;24.30;67.60;;;;;;5052032;28;20518;-58
2021/05/10 11:52:12;;;;;;;1999.90;999.90;;;24.20;68.10;;;;;;5051703;28;20612;-59
2021/05/10 11:54:45;;;;;;;1999.90;999.90;;;24.30;68.00;;;;;;5052137;28;20528;-55
2021/05/10 11:57:14;;;;;;;1999.90;999.90;;;24.10;69.80;;;;;;5051872;28;20620;-51
2021/05/10 11:59:47;;;;;;;1999.90;999.90;;;24.40;70.30;;;;;;5051582;28;20173;-54
2021/05/10 12:02:17;;;;;;;1999.90;999.90;;;24.70;70.70;;;;;;5051553;28;20303;-52
2021/05/10 12:04:48;;;;;;;1999.90;999.90;;;25.20;69.20;;;;;;5051707;28;20245;-53
2021/05/10 12:07:16;;;;;;;1999.90;999.90;;;25.50;68.30;;;;;;5054325;28;20157;-55
2021/05/10 12:10:02;;;;;;;1999.90;999.90;;;25.50;68.60;;;;;;5055177;28;20656;-54
2021/05/10 12:12:30;;;;;;;1999.90;999.90;;;25.50;67.80;;;;;;5055151;28;20176;-57
2021/05/10 12:15:02;;;;;;;1999.90;999.90;;;25.40;67.50;;;;;;5055258;28;20747;-57
2021/05/10 12:17:30;;;;;;;1999.90;999.90;;;25.50;67.10;;;;;;5054899;28;20169;-57
2021/05/10 12:20:01;;;;;;;1999.90;999.90;;;25.50;67.00;;;;;;5055058;28;20193;-57
2021/05/10 12:22:40;;;;;;;1999.90;999.90;;;25.40;67.30;;;;;;5054717;28;20173;-55